Henrietta, North Carolina
Current Conditions -  °F | °C
As of 11:55 AM on Tuesday 27 Jan 2015 (Local Time) from KEHO Reporting Station
Broken Clouds Broken Clouds  
Wind Chill: 33°   Ceiling: 6500
Heat Index: 40°   Visibility: 10mi
Dew Point: 21°   Wind: 12mph
Humidity: 47%   Direction: 330°NNW
Pressure: 29.87"   Gusts: NA
Location:  35.26°N, 81.8°W
Report Text: KEHO 271655Z AUTO 33010KT 10SM SCT060 BKN065 05/M06 A2987 RMK AO2 T00451060
Loading
Personal Weather Stations






























Interactive Weather Map New forecast layout! Learn more

10-Day Weather Forecast

Advertisements
Track Severe Weather on mobile